KBYI/BYI METAR and TAF weather

Enter ICAO airport designator
Station Type Date Time Source
KBYI METAR 2021/05/14 12:53 UTC NOAA

KBYI 141253Z AUTO 20005KT 10SM FEW120 09/03 A3002 RMK AO2 SLP131 T00890033


Station Type Date Time Source
KBYI Decoded METAR 2021/05/14 12:53 UTC NOAA

BURLEY MUNICIPAL AIRPORT, ID, United States (KBYI) 42-33N 113-46W 1264M
May 14, 2021 - 08:53 AM EDT / 2021.05.14 1253 UTC
Wind: from the SSW (200 degrees) at 6 MPH (5 KT):0
Visibility: 10 mile(s):0
Sky conditions: mostly clear
Temperature: 48.0 F (8.9 C)
Dew Point: 37.9 F (3.3 C)
Relative Humidity: 67%
Pressure (altimeter): 30.02 in. Hg (1016 hPa)
ob: KBYI 141253Z AUTO 20005KT 10SM FEW120 09/03 A3002 RMK AO2 SLP131 T00890033
cycle: 13

Station Type Date Time Source
KBYI TAF 2021/05/14 12:22 UTC NOAA

TAF KBYI 141120Z 1412/1512 VRB06KT P6SM SCT150
FM142100 30009KT P6SM VCTS SCT070CB BKN200
FM150300 21005KT P6SM SCT070 BKN150

Example: see airport list